sensor_id;sensor_type;location;lat;lon;timestamp;pressure;altitude;pressure_sealevel;temperature;humidity
19748;BME280;10032;51.386;12.516;2023-04-28T00:00:08;100423.50;;;7.17;100.00
19748;BME280;10032;51.386;12.516;2023-04-28T00:02:34;100428.69;;;7.19;100.00
19748;BME280;10032;51.386;12.516;2023-04-28T00:04:59;100419.78;;;7.18;100.00
19748;BME280;10032;51.386;12.516;2023-04-28T00:07:25;100419.78;;;7.18;100.00
19748;BME280;10032;51.386;12.516;2023-04-28T00:09:50;100421.88;;;7.16;100.00
19748;BME280;10032;51.386;12.516;2023-04-28T00:12:16;100417.06;;;7.18;100.00
19748;BME280;10032;51.386;12.516;2023-04-28T00:14:41;100413.78;;;7.16;100.00
19748;BME280;10032;51.386;12.516;2023-04-28T00:17:07;100417.53;;;7.15;100.00
19748;BME280;10032;51.386;12.516;2023-04-28T00:19:34;100421.50;;;7.13;100.00
19748;BME280;10032;51.386;12.516;2023-04-28T00:21:59;100418.69;;;7.01;100.00
19748;BME280;10032;51.386;12.516;2023-04-28T00:24:25;100418.34;;;6.91;100.00
19748;BME280;10032;51.386;12.516;2023-04-28T00:26:50;100415.28;;;6.88;100.00
19748;BME280;10032;51.386;12.516;2023-04-28T00:29:16;100415.50;;;6.86;100.00
19748;BME280;10032;51.386;12.516;2023-04-28T00:31:43;100403.50;;;6.82;100.00
19748;BME280;10032;51.386;12.516;2023-04-28T00:34:08;100409.97;;;6.75;100.00
19748;BME280;10032;51.386;12.516;2023-04-28T00:36:38;100396.13;;;6.71;100.00
19748;BME280;10032;51.386;12.516;2023-04-28T00:39:03;100398.22;;;6.69;100.00
19748;BME280;10032;51.386;12.516;2023-04-28T00:41:29;100394.78;;;6.62;100.00
19748;BME280;10032;51.386;12.516;2023-04-28T00:43:54;100394.59;;;6.57;100.00
19748;BME280;10032;51.386;12.516;2023-04-28T00:46:24;100389.41;;;6.56;100.00
19748;BME280;10032;51.386;12.516;2023-04-28T00:48:49;100385.94;;;6.49;100.00
19748;BME280;10032;51.386;12.516;2023-04-28T00:51:15;100382.09;;;6.38;100.00
19748;BME280;10032;51.386;12.516;2023-04-28T00:53:42;100395.56;;;6.32;100.00
19748;BME280;10032;51.386;12.516;2023-04-28T00:56:08;100382.19;;;6.25;100.00
19748;BME280;10032;51.386;12.516;2023-04-28T00:58:33;100382.59;;;6.22;100.00
19748;BME280;10032;51.386;12.516;2023-04-28T01:01:03;100388.63;;;6.18;100.00
19748;BME280;10032;51.386;12.516;2023-04-28T01:03:29;100383.88;;;6.13;100.00
19748;BME280;10032;51.386;12.516;2023-04-28T01:05:54;100384.75;;;6.07;100.00
19748;BME280;10032;51.386;12.516;2023-04-28T01:08:27;100370.91;;;6.04;100.00
19748;BME280;10032;51.386;12.516;2023-04-28T01:10:52;100379.81;;;6.04;100.00
19748;BME280;10032;51.386;12.516;2023-04-28T01:13:18;100368.25;;;5.97;100.00
19748;BME280;10032;51.386;12.516;2023-04-28T01:15:43;100373.22;;;5.94;100.00
19748;BME280;10032;51.386;12.516;2023-04-28T01:18:09;100366.41;;;5.91;100.00
19748;BME280;10032;51.386;12.516;2023-04-28T01:20:34;100375.09;;;5.93;100.00
19748;BME280;10032;51.386;12.516;2023-04-28T01:23:00;100370.16;;;5.90;100.00
19748;BME280;10032;51.386;12.516;2023-04-28T01:25:25;100363.34;;;5.88;100.00
19748;BME280;10032;51.386;12.516;2023-04-28T01:27:51;100362.09;;;5.84;100.00
19748;BME280;10032;51.386;12.516;2023-04-28T01:30:17;100361.50;;;5.82;100.00
19748;BME280;10032;51.386;12.516;2023-04-28T01:32:42;100359.63;;;5.82;100.00
19748;BME280;10032;51.386;12.516;2023-04-28T01:35:08;100357.19;;;5.81;100.00
19748;BME280;10032;51.386;12.516;2023-04-28T01:37:33;100353.66;;;5.80;100.00
19748;BME280;10032;51.386;12.516;2023-04-28T01:39:58;100348.28;;;5.80;100.00
19748;BME280;10032;51.386;12.516;2023-04-28T01:42:24;100350.53;;;5.77;100.00
19748;BME280;10032;51.386;12.516;2023-04-28T01:44:49;100343.09;;;5.72;100.00
19748;BME280;10032;51.386;12.516;2023-04-28T01:47:15;100350.16;;;5.73;100.00
19748;BME280;10032;51.386;12.516;2023-04-28T01:49:40;100336.88;;;5.78;100.00
19748;BME280;10032;51.386;12.516;2023-04-28T01:52:05;100343.50;;;5.82;100.00
19748;BME280;10032;51.386;12.516;2023-04-28T01:54:31;100342.88;;;5.87;100.00
19748;BME280;10032;51.386;12.516;2023-04-28T01:56:56;100340.13;;;5.93;100.00
19748;BME280;10032;51.386;12.516;2023-04-28T01:59:22;100331.22;;;5.99;100.00
19748;BME280;10032;51.386;12.516;2023-04-28T02:01:47;100333.47;;;6.02;100.00
19748;BME280;10032;51.386;12.516;2023-04-28T02:04:12;100330.13;;;6.07;100.00
19748;BME280;10032;51.386;12.516;2023-04-28T02:06:38;100326.81;;;6.11;100.00
19748;BME280;10032;51.386;12.516;2023-04-28T02:09:03;100318.06;;;6.16;100.00
19748;BME280;10032;51.386;12.516;2023-04-28T02:11:29;100324.88;;;6.18;100.00
19748;BME280;10032;51.386;12.516;2023-04-28T02:13:54;100312.66;;;6.22;100.00
19748;BME280;10032;51.386;12.516;2023-04-28T02:16:20;100313.44;;;6.29;100.00
19748;BME280;10032;51.386;12.516;2023-04-28T02:18:45;100311.56;;;6.30;100.00
19748;BME280;10032;51.386;12.516;2023-04-28T02:21:11;100314.66;;;6.33;100.00
19748;BME280;10032;51.386;12.516;2023-04-28T02:23:37;100310.03;;;6.40;100.00
19748;BME280;10032;51.386;12.516;2023-04-28T02:26:03;100309.31;;;6.51;100.00
19748;BME280;10032;51.386;12.516;2023-04-28T02:28:29;100299.34;;;6.58;100.00
19748;BME280;10032;51.386;12.516;2023-04-28T02:31:08;100298.66;;;6.63;100.00
19748;BME280;10032;51.386;12.516;2023-04-28T02:33:34;100288.44;;;6.71;100.00
19748;BME280;10032;51.386;12.516;2023-04-28T02:36:00;100286.75;;;6.77;100.00
19748;BME280;10032;51.386;12.516;2023-04-28T02:38:26;100284.88;;;6.77;100.00
19748;BME280;10032;51.386;12.516;2023-04-28T02:41:05;100282.56;;;6.81;100.00
19748;BME280;10032;51.386;12.516;2023-04-28T02:43:32;100276.50;;;6.85;100.00
19748;BME280;10032;51.386;12.516;2023-04-28T02:45:57;100282.50;;;6.87;100.00
19748;BME280;10032;51.386;12.516;2023-04-28T02:48:23;100279.38;;;6.90;100.00
19748;BME280;10032;51.386;12.516;2023-04-28T02:50:49;100278.53;;;6.90;100.00
19748;BME280;10032;51.386;12.516;2023-04-28T02:53:15;100283.47;;;6.93;100.00
19748;BME280;10032;51.386;12.516;2023-04-28T02:55:40;100284.28;;;6.93;100.00
19748;BME280;10032;51.386;12.516;2023-04-28T02:58:06;100289.69;;;6.93;100.00
19748;BME280;10032;51.386;12.516;2023-04-28T03:00:31;100280.69;;;6.81;100.00
19748;BME280;10032;51.386;12.516;2023-04-28T03:02:57;100275.34;;;6.75;100.00
19748;BME280;10032;51.386;12.516;2023-04-28T03:05:23;100281.72;;;6.62;100.00
19748;BME280;10032;51.386;12.516;2023-04-28T03:07:48;100266.03;;;6.53;100.00
19748;BME280;10032;51.386;12.516;2023-04-28T03:10:14;100273.75;;;6.49;100.00
19748;BME280;10032;51.386;12.516;2023-04-28T03:12:39;100269.78;;;6.52;100.00
19748;BME280;10032;51.386;12.516;2023-04-28T03:15:05;100262.31;;;6.54;100.00
19748;BME280;10032;51.386;12.516;2023-04-28T03:17:33;100265.25;;;6.52;100.00
19748;BME280;10032;51.386;12.516;2023-04-28T03:20:03;100270.16;;;6.55;100.00
19748;BME280;10032;51.386;12.516;2023-04-28T03:22:29;100270.16;;;6.55;100.00
19748;BME280;10032;51.386;12.516;2023-04-28T03:24:55;100265.41;;;6.57;100.00
19748;BME280;10032;51.386;12.516;2023-04-28T03:27:20;100252.53;;;6.59;100.00
19748;BME280;10032;51.386;12.516;2023-04-28T03:29:46;100251.94;;;6.57;100.00
19748;BME280;10032;51.386;12.516;2023-04-28T03:32:11;100242.38;;;6.61;100.00
19748;BME280;10032;51.386;12.516;2023-04-28T03:34:37;100242.38;;;6.61;100.00
19748;BME280;10032;51.386;12.516;2023-04-28T03:37:02;100242.75;;;6.65;100.00
19748;BME280;10032;51.386;12.516;2023-04-28T03:39:28;100234.91;;;6.63;100.00
19748;BME280;10032;51.386;12.516;2023-04-28T03:41:53;100231.59;;;6.61;100.00
19748;BME280;10032;51.386;12.516;2023-04-28T03:44:19;100224.56;;;6.60;100.00
19748;BME280;10032;51.386;12.516;2023-04-28T03:46:44;100216.34;;;6.55;100.00
19748;BME280;10032;51.386;12.516;2023-04-28T03:49:10;100212.22;;;6.53;100.00
19748;BME280;10032;51.386;12.516;2023-04-28T03:51:35;100214.47;;;6.56;100.00
19748;BME280;10032;51.386;12.516;2023-04-28T03:54:01;100199.38;;;6.55;100.00
19748;BME280;10032;51.386;12.516;2023-04-28T03:56:26;100201.47;;;6.53;100.00
19748;BME280;10032;51.386;12.516;2023-04-28T03:58:51;100191.69;;;6.58;100.00
19748;BME280;10032;51.386;12.516;2023-04-28T04:01:17;100188.25;;;6.69;100.00
19748;BME280;10032;51.386;12.516;2023-04-28T04:03:42;100196.16;;;6.82;100.00
19748;BME280;10032;51.386;12.516;2023-04-28T04:06:08;100192.50;;;6.95;100.00
19748;BME280;10032;51.386;12.516;2023-04-28T04:08:33;100193.38;;;7.07;100.00
19748;BME280;10032;51.386;12.516;2023-04-28T04:10:59;100188.53;;;7.15;100.00
19748;BME280;10032;51.386;12.516;2023-04-28T04:13:24;100183.06;;;7.22;100.00
19748;BME280;10032;51.386;12.516;2023-04-28T04:15:50;100191.28;;;7.27;100.00
19748;BME280;10032;51.386;12.516;2023-04-28T04:18:17;100190.63;;;7.31;100.00
19748;BME280;10032;51.386;12.516;2023-04-28T04:20:43;100200.47;;;7.37;100.00
19748;BME280;10032;51.386;12.516;2023-04-28T04:23:08;100191.34;;;7.38;100.00
19748;BME280;10032;51.386;12.516;2023-04-28T04:25:34;100182.56;;;7.43;100.00
19748;BME280;10032;51.386;12.516;2023-04-28T04:27:59;100184.19;;;7.44;100.00
19748;BME280;10032;51.386;12.516;2023-04-28T04:30:25;100179.19;;;7.47;100.00
19748;BME280;10032;51.386;12.516;2023-04-28T04:32:50;100176.25;;;7.49;100.00
19748;BME280;10032;51.386;12.516;2023-04-28T04:35:16;100184.59;;;7.47;100.00
19748;BME280;10032;51.386;12.516;2023-04-28T04:37:41;100174.69;;;7.41;100.00
19748;BME280;10032;51.386;12.516;2023-04-28T04:40:07;100178.78;;;7.32;100.00
19748;BME280;10032;51.386;12.516;2023-04-28T04:42:33;100166.81;;;7.28;100.00
19748;BME280;10032;51.386;12.516;2023-04-28T04:44:58;100161.06;;;7.25;100.00
19748;BME280;10032;51.386;12.516;2023-04-28T04:47:24;100167.84;;;7.27;100.00
19748;BME280;10032;51.386;12.516;2023-04-28T04:49:50;100160.59;;;7.28;100.00
19748;BME280;10032;51.386;12.516;2023-04-28T04:52:15;100160.38;;;7.29;100.00
19748;BME280;10032;51.386;12.516;2023-04-28T04:54:40;100160.84;;;7.26;100.00
19748;BME280;10032;51.386;12.516;2023-04-28T04:57:06;100154.97;;;7.29;100.00
19748;BME280;10032;51.386;12.516;2023-04-28T04:59:32;100154.53;;;7.32;100.00
19748;BME280;10032;51.386;12.516;2023-04-28T05:01:57;100161.84;;;7.43;100.00
19748;BME280;10032;51.386;12.516;2023-04-28T05:04:23;100154.03;;;7.53;100.00
19748;BME280;10032;51.386;12.516;2023-04-28T05:06:48;100156.25;;;7.56;100.00
19748;BME280;10032;51.386;12.516;2023-04-28T05:09:13;100156.38;;;7.61;100.00
19748;BME280;10032;51.386;12.516;2023-04-28T05:11:39;100152.75;;;7.67;100.00
19748;BME280;10032;51.386;12.516;2023-04-28T05:14:05;100160.53;;;7.75;100.00
19748;BME280;10032;51.386;12.516;2023-04-28T05:16:30;100149.38;;;7.72;100.00
19748;BME280;10032;51.386;12.516;2023-04-28T05:18:56;100154.28;;;7.75;100.00
19748;BME280;10032;51.386;12.516;2023-04-28T05:21:22;100149.25;;;7.78;100.00
19748;BME280;10032;51.386;12.516;2023-04-28T05:23:47;100152.44;;;7.75;100.00
19748;BME280;10032;51.386;12.516;2023-04-28T05:26:12;100149.38;;;7.83;100.00
19748;BME280;10032;51.386;12.516;2023-04-28T05:28:39;100156.56;;;7.89;100.00
19748;BME280;10032;51.386;12.516;2023-04-28T05:31:05;100155.63;;;7.95;100.00
19748;BME280;10032;51.386;12.516;2023-04-28T05:33:30;100147.28;;;7.97;100.00
19748;BME280;10032;51.386;12.516;2023-04-28T05:35:56;100145.56;;;8.02;100.00
19748;BME280;10032;51.386;12.516;2023-04-28T05:38:21;100140.84;;;8.09;100.00
19748;BME280;10032;51.386;12.516;2023-04-28T05:40:47;100144.03;;;8.18;100.00
19748;BME280;10032;51.386;12.516;2023-04-28T05:43:12;100136.19;;;8.28;100.00
19748;BME280;10032;51.386;12.516;2023-04-28T05:45:38;100140.19;;;8.48;100.00
19748;BME280;10032;51.386;12.516;2023-04-28T05:48:04;100130.97;;;8.95;100.00
19748;BME280;10032;51.386;12.516;2023-04-28T05:50:29;100129.81;;;9.47;100.00
19748;BME280;10032;51.386;12.516;2023-04-28T05:52:55;100113.78;;;9.90;100.00
19748;BME280;10032;51.386;12.516;2023-04-28T05:55:21;100111.16;;;10.28;100.00
19748;BME280;10032;51.386;12.516;2023-04-28T05:57:46;100108.44;;;10.66;100.00
19748;BME280;10032;51.386;12.516;2023-04-28T06:00:12;100110.81;;;10.84;100.00
19748;BME280;10032;51.386;12.516;2023-04-28T06:02:38;100112.28;;;10.92;100.00
19748;BME280;10032;51.386;12.516;2023-04-28T06:05:04;100107.69;;;10.92;100.00
19748;BME280;10032;51.386;12.516;2023-04-28T06:07:29;100107.75;;;10.97;100.00
19748;BME280;10032;51.386;12.516;2023-04-28T06:09:54;100101.84;;;11.27;100.00
19748;BME280;10032;51.386;12.516;2023-04-28T06:12:20;100106.09;;;11.44;100.00
19748;BME280;10032;51.386;12.516;2023-04-28T06:14:45;100104.44;;;11.96;100.00
19748;BME280;10032;51.386;12.516;2023-04-28T06:17:11;100109.34;;;11.99;100.00
19748;BME280;10032;51.386;12.516;2023-04-28T06:19:36;100105.59;;;12.05;100.00
19748;BME280;10032;51.386;12.516;2023-04-28T06:22:01;100104.66;;;12.26;100.00
19748;BME280;10032;51.386;12.516;2023-04-28T06:24:27;100107.03;;;12.54;100.00
19748;BME280;10032;51.386;12.516;2023-04-28T06:26:52;100106.09;;;12.85;100.00
19748;BME280;10032;51.386;12.516;2023-04-28T06:29:18;100104.56;;;13.04;100.00
19748;BME280;10032;51.386;12.516;2023-04-28T06:31:44;100095.66;;;13.29;100.00
19748;BME280;10032;51.386;12.516;2023-04-28T06:34:10;100092.16;;;13.38;97.35
19748;BME280;10032;51.386;12.516;2023-04-28T06:36:35;100092.91;;;13.19;92.59
19748;BME280;10032;51.386;12.516;2023-04-28T06:39:01;100097.47;;;12.98;90.08
19748;BME280;10032;51.386;12.516;2023-04-28T06:41:26;100097.56;;;12.72;87.69
19748;BME280;10032;51.386;12.516;2023-04-28T06:43:53;100096.22;;;12.69;89.87
19748;BME280;10032;51.386;12.516;2023-04-28T06:46:19;100100.03;;;12.73;89.74
19748;BME280;10032;51.386;12.516;2023-04-28T06:48:44;100094.28;;;12.65;87.43
19748;BME280;10032;51.386;12.516;2023-04-28T06:51:10;100092.84;;;12.52;84.82
19748;BME280;10032;51.386;12.516;2023-04-28T06:53:35;100086.38;;;12.58;87.16
19748;BME280;10032;51.386;12.516;2023-04-28T06:56:01;100089.09;;;12.63;86.46
19748;BME280;10032;51.386;12.516;2023-04-28T06:58:27;100084.28;;;12.70;88.40
19748;BME280;10032;51.386;12.516;2023-04-28T07:00:53;100078.03;;;12.75;87.83
19748;BME280;10032;51.386;12.516;2023-04-28T07:03:18;100084.28;;;12.75;87.87
19748;BME280;10032;51.386;12.516;2023-04-28T07:05:44;100074.53;;;12.89;87.28
19748;BME280;10032;51.386;12.516;2023-04-28T07:08:09;100081.34;;;12.87;87.21
19748;BME280;10032;51.386;12.516;2023-04-28T07:10:35;100068.00;;;12.90;87.12
19748;BME280;10032;51.386;12.516;2023-04-28T07:13:00;100060.50;;;13.02;88.15
19748;BME280;10032;51.386;12.516;2023-04-28T07:15:26;100060.25;;;13.24;87.72
19748;BME280;10032;51.386;12.516;2023-04-28T07:17:52;100061.13;;;13.44;87.55
19748;BME280;10032;51.386;12.516;2023-04-28T07:20:17;100052.69;;;13.56;85.45
19748;BME280;10032;51.386;12.516;2023-04-28T07:22:43;100047.25;;;13.61;86.31
19748;BME280;10032;51.386;12.516;2023-04-28T07:25:09;100060.88;;;13.71;85.36
19748;BME280;10032;51.386;12.516;2023-04-28T07:27:35;100057.88;;;13.67;84.15
19748;BME280;10032;51.386;12.516;2023-04-28T07:30:01;100054.31;;;13.67;84.34
19748;BME280;10032;51.386;12.516;2023-04-28T07:32:26;100050.25;;;13.69;84.65
19748;BME280;10032;51.386;12.516;2023-04-28T07:34:52;100055.16;;;13.82;84.82
19748;BME280;10032;51.386;12.516;2023-04-28T07:37:17;100053.78;;;13.90;84.54
19748;BME280;10032;51.386;12.516;2023-04-28T07:39:43;100051.31;;;14.03;84.67
19748;BME280;10032;51.386;12.516;2023-04-28T07:42:09;100054.03;;;14.18;85.26
19748;BME280;10032;51.386;12.516;2023-04-28T07:44:34;100044.75;;;14.39;85.00
19748;BME280;10032;51.386;12.516;2023-04-28T07:47:00;100047.72;;;14.48;83.85
19748;BME280;10032;51.386;12.516;2023-04-28T07:49:27;100050.72;;;14.51;83.20
19748;BME280;10032;51.386;12.516;2023-04-28T07:51:53;100058.91;;;14.41;81.34
19748;BME280;10032;51.386;12.516;2023-04-28T07:54:20;100046.91;;;14.47;81.35
19748;BME280;10032;51.386;12.516;2023-04-28T07:56:45;100041.69;;;14.56;81.28
19748;BME280;10032;51.386;12.516;2023-04-28T07:59:11;100046.78;;;14.77;82.68
19748;BME280;10032;51.386;12.516;2023-04-28T08:01:36;100044.75;;;15.03;82.19
19748;BME280;10032;51.386;12.516;2023-04-28T08:04:02;100041.66;;;15.19;81.95
19748;BME280;10032;51.386;12.516;2023-04-28T08:06:27;100041.84;;;15.38;80.66
19748;BME280;10032;51.386;12.516;2023-04-28T08:08:54;100033.47;;;15.63;81.21
19748;BME280;10032;51.386;12.516;2023-04-28T08:11:20;100035.19;;;15.87;80.85
19748;BME280;10032;51.386;12.516;2023-04-28T08:13:47;100030.66;;;16.01;80.47
19748;BME280;10032;51.386;12.516;2023-04-28T08:16:13;100020.97;;;16.14;79.74
19748;BME280;10032;51.386;12.516;2023-04-28T08:18:39;100028.50;;;16.27;80.12
19748;BME280;10032;51.386;12.516;2023-04-28T08:21:05;100033.31;;;16.40;79.40
19748;BME280;10032;51.386;12.516;2023-04-28T08:23:30;100034.13;;;16.40;79.05
19748;BME280;10032;51.386;12.516;2023-04-28T08:25:56;100038.50;;;16.36;78.23
19748;BME280;10032;51.386;12.516;2023-04-28T08:28:22;100036.88;;;16.35;76.89
19748;BME280;10032;51.386;12.516;2023-04-28T08:30:47;100035.31;;;16.29;77.21
19748;BME280;10032;51.386;12.516;2023-04-28T08:33:13;100037.03;;;16.20;75.68
19748;BME280;10032;51.386;12.516;2023-04-28T08:35:38;100035.13;;;16.21;76.46
19748;BME280;10032;51.386;12.516;2023-04-28T08:38:05;100035.00;;;16.31;76.80
19748;BME280;10032;51.386;12.516;2023-04-28T08:40:31;100041.22;;;16.41;76.92
19748;BME280;10032;51.386;12.516;2023-04-28T08:42:57;100042.22;;;16.50;76.71
19748;BME280;10032;51.386;12.516;2023-04-28T08:45:23;100038.84;;;16.58;76.54
19748;BME280;10032;51.386;12.516;2023-04-28T08:47:50;100042.16;;;16.55;75.59
19748;BME280;10032;51.386;12.516;2023-04-28T08:50:20;100037.50;;;16.56;75.99
19748;BME280;10032;51.386;12.516;2023-04-28T08:52:46;100040.34;;;16.69;76.40
19748;BME280;10032;51.386;12.516;2023-04-28T08:55:12;100040.22;;;16.79;77.23
19748;BME280;10032;51.386;12.516;2023-04-28T08:57:44;100043.66;;;16.90;76.00
19748;BME280;10032;51.386;12.516;2023-04-28T09:00:11;100042.31;;;16.87;76.50
19748;BME280;10032;51.386;12.516;2023-04-28T09:02:37;100039.09;;;16.80;74.30
19748;BME280;10032;51.386;12.516;2023-04-28T09:05:09;100037.97;;;16.63;72.75
19748;BME280;10032;51.386;12.516;2023-04-28T09:07:35;100039.94;;;16.57;74.12
19748;BME280;10032;51.386;12.516;2023-04-28T09:12:42;100047.38;;;16.52;75.83
19748;BME280;10032;51.386;12.516;2023-04-28T09:15:08;100035.69;;;16.46;75.64
19748;BME280;10032;51.386;12.516;2023-04-28T09:17:49;100035.75;;;16.41;75.46
19748;BME280;10032;51.386;12.516;2023-04-28T09:20:35;100033.84;;;16.42;76.73
19748;BME280;10032;51.386;12.516;2023-04-28T09:23:21;100035.31;;;16.58;77.08
19748;BME280;10032;51.386;12.516;2023-04-28T09:28:23;100038.66;;;16.50;75.98
19748;BME280;10032;51.386;12.516;2023-04-28T09:30:49;100036.44;;;16.28;75.97
19748;BME280;10032;51.386;12.516;2023-04-28T09:33:14;100033.47;;;16.20;76.28
19748;BME280;10032;51.386;12.516;2023-04-28T09:35:41;100047.47;;;16.18;77.13
19748;BME280;10032;51.386;12.516;2023-04-28T09:38:08;100035.69;;;16.18;77.30
19748;BME280;10032;51.386;12.516;2023-04-28T09:40:57;100042.66;;;16.05;78.19
19748;BME280;10032;51.386;12.516;2023-04-28T09:45:49;100034.44;;;16.05;80.34
19748;BME280;10032;51.386;12.516;2023-04-28T09:48:15;100035.00;;;16.07;81.47
19748;BME280;10032;51.386;12.516;2023-04-28T09:50:40;100033.25;;;16.16;82.41
19748;BME280;10032;51.386;12.516;2023-04-28T09:53:08;100036.53;;;16.18;82.83
19748;BME280;10032;51.386;12.516;2023-04-28T09:55:40;100043.94;;;16.13;84.08
19748;BME280;10032;51.386;12.516;2023-04-28T09:58:08;100039.31;;;16.13;84.60
19748;BME280;10032;51.386;12.516;2023-04-28T10:00:38;100039.06;;;16.10;85.21
19748;BME280;10032;51.386;12.516;2023-04-28T10:03:06;100041.50;;;16.11;86.45
19748;BME280;10032;51.386;12.516;2023-04-28T10:05:32;100027.53;;;16.13;86.84
19748;BME280;10032;51.386;12.516;2023-04-28T10:08:01;100031.06;;;16.18;87.68
19748;BME280;10032;51.386;12.516;2023-04-28T10:10:26;100037.09;;;16.15;88.26
19748;BME280;10032;51.386;12.516;2023-04-28T10:12:54;100036.56;;;16.13;89.70
19748;BME280;10032;51.386;12.516;2023-04-28T10:15:20;100041.84;;;16.05;89.98
19748;BME280;10032;51.386;12.516;2023-04-28T10:17:47;100032.78;;;16.09;91.59
19748;BME280;10032;51.386;12.516;2023-04-28T10:20:14;100028.38;;;16.13;91.54
19748;BME280;10032;51.386;12.516;2023-04-28T10:25:28;100023.41;;;16.15;93.20
19748;BME280;10032;51.386;12.516;2023-04-28T10:27:56;100022.38;;;16.11;93.15
19748;BME280;10032;51.386;12.516;2023-04-28T10:30:24;100017.91;;;16.20;94.29
19748;BME280;10032;51.386;12.516;2023-04-28T10:35:45;100015.00;;;16.35;95.77
19748;BME280;10032;51.386;12.516;2023-04-28T10:38:13;100005.81;;;16.26;95.61
19748;BME280;10032;51.386;12.516;2023-04-28T10:40:46;99999.41;;;16.36;97.86
19748;BME280;10032;51.386;12.516;2023-04-28T10:56:25;99992.28;;;16.11;100.00
19748;BME280;10032;51.386;12.516;2023-04-28T10:58:53;99988.13;;;16.19;100.00
19748;BME280;10032;51.386;12.516;2023-04-28T11:06:41;99992.53;;;16.15;100.00
19748;BME280;10032;51.386;12.516;2023-04-28T11:11:39;99976.75;;;15.83;100.00
19748;BME280;10032;51.386;12.516;2023-04-28T11:19:21;99988.78;;;15.82;100.00
19748;BME280;10032;51.386;12.516;2023-04-28T11:21:49;99999.88;;;15.62;100.00
19748;BME280;10032;51.386;12.516;2023-04-28T11:24:15;99995.56;;;15.56;100.00
19748;BME280;10032;51.386;12.516;2023-04-28T11:26:41;99986.78;;;15.59;100.00
19748;BME280;10032;51.386;12.516;2023-04-28T11:29:08;99989.00;;;15.57;100.00
19748;BME280;10032;51.386;12.516;2023-04-28T11:31:34;99982.69;;;15.57;100.00
19748;BME280;10032;51.386;12.516;2023-04-28T11:34:03;99983.00;;;15.55;100.00
19748;BME280;10032;51.386;12.516;2023-04-28T11:36:35;99975.81;;;15.64;100.00
19748;BME280;10032;51.386;12.516;2023-04-28T11:39:04;99972.25;;;15.69;100.00
19748;BME280;10032;51.386;12.516;2023-04-28T11:41:36;99964.22;;;15.77;100.00
19748;BME280;10032;51.386;12.516;2023-04-28T11:44:15;99969.31;;;15.89;100.00
19748;BME280;10032;51.386;12.516;2023-04-28T11:49:10;99965.94;;;15.97;100.00
19748;BME280;10032;51.386;12.516;2023-04-28T11:51:37;99962.88;;;16.03;100.00
19748;BME280;10032;51.386;12.516;2023-04-28T11:54:06;99960.94;;;16.04;100.00
19748;BME280;10032;51.386;12.516;2023-04-28T11:56:38;99958.47;;;16.07;100.00
19748;BME280;10032;51.386;12.516;2023-04-28T11:59:06;99954.13;;;16.01;100.00
19748;BME280;10032;51.386;12.516;2023-04-28T12:01:34;99949.72;;;16.05;100.00
19748;BME280;10032;51.386;12.516;2023-04-28T12:04:02;99949.22;;;16.03;100.00
19748;BME280;10032;51.386;12.516;2023-04-28T12:06:28;99936.13;;;16.00;100.00
19748;BME280;10032;51.386;12.516;2023-04-28T12:08:54;99934.72;;;16.03;100.00
19748;BME280;10032;51.386;12.516;2023-04-28T12:11:20;99928.09;;;16.09;100.00
19748;BME280;10032;51.386;12.516;2023-04-28T12:14:02;99928.09;;;16.09;100.00
19748;BME280;10032;51.386;12.516;2023-04-28T12:16:42;99924.19;;;16.15;100.00
19748;BME280;10032;51.386;12.516;2023-04-28T12:19:09;99908.03;;;16.18;100.00
19748;BME280;10032;51.386;12.516;2023-04-28T12:21:38;99913.63;;;16.32;100.00
19748;BME280;10032;51.386;12.516;2023-04-28T12:24:15;99923.34;;;16.43;100.00
19748;BME280;10032;51.386;12.516;2023-04-28T12:26:40;99912.63;;;16.46;100.00
19748;BME280;10032;51.386;12.516;2023-04-28T12:29:07;99917.88;;;16.43;100.00
19748;BME280;10032;51.386;12.516;2023-04-28T12:31:49;99914.31;;;16.42;100.00
19748;BME280;10032;51.386;12.516;2023-04-28T12:34:17;99908.19;;;16.50;100.00
19748;BME280;10032;51.386;12.516;2023-04-28T12:36:42;99909.59;;;16.48;100.00
19748;BME280;10032;51.386;12.516;2023-04-28T12:39:14;99900.00;;;16.50;100.00
19748;BME280;10032;51.386;12.516;2023-04-28T12:41:41;99893.63;;;16.55;100.00
19748;BME280;10032;51.386;12.516;2023-04-28T12:44:06;99896.31;;;16.36;100.00
19748;BME280;10032;51.386;12.516;2023-04-28T12:46:32;99894.09;;;16.38;100.00
19748;BME280;10032;51.386;12.516;2023-04-28T12:48:57;99887.94;;;16.51;100.00
19748;BME280;10032;51.386;12.516;2023-04-28T12:51:23;99895.25;;;16.56;100.00
19748;BME280;10032;51.386;12.516;2023-04-28T12:53:48;99896.88;;;16.57;100.00
19748;BME280;10032;51.386;12.516;2023-04-28T12:56:14;99894.53;;;16.69;100.00
19748;BME280;10032;51.386;12.516;2023-04-28T12:58:39;99888.09;;;16.78;100.00
19748;BME280;10032;51.386;12.516;2023-04-28T13:01:05;99884.25;;;16.79;100.00
19748;BME280;10032;51.386;12.516;2023-04-28T13:03:30;99893.13;;;16.71;100.00
19748;BME280;10032;51.386;12.516;2023-04-28T13:05:56;99884.84;;;16.76;100.00
19748;BME280;10032;51.386;12.516;2023-04-28T13:08:22;99875.59;;;16.91;100.00
19748;BME280;10032;51.386;12.516;2023-04-28T13:10:47;99874.88;;;17.17;100.00
19748;BME280;10032;51.386;12.516;2023-04-28T13:13:12;99863.75;;;17.27;100.00
19748;BME280;10032;51.386;12.516;2023-04-28T13:15:38;99856.66;;;17.26;100.00
19748;BME280;10032;51.386;12.516;2023-04-28T13:18:04;99851.91;;;17.32;100.00